Station: Smithton  

  Atmospheric Gas Attenuation - ITU Rec 676-11   ----------------- dB/100km -----------------
Date Time Temp RH % AH g/m3 Dew Point Wind Direction Speed kph Gust kph Barometer mB Rainfall Since 9am 24GHz 47GHz 76GHz 122GHz 134GHz 241GHz
05/05 20:50 11.8 93 9.79 10.7 9 11 1018.9 0 22.2 28.7 46.1 121.2 118.0 406.8
05/05 20:40 11.7 93 9.73 10.6 9 9 1018.9 0 22.1 28.7 45.9 120.7 117.3 404.4
05/05 20:30 11.7 93 9.73 10.6 9 11 1018.9 0 22.1 28.7 45.9 120.7 117.3 404.4
05/05 20:20 11.5 93 9.61 10.4 11 13 1018.9 0 21.9 28.5 45.5 119.6 115.9 399.4
05/05 20:10 11.3 93 9.49 10.2 7 7 1018.9 0 21.6 28.4 45.1 118.5 114.5 394.5
05/05 20:00 11.1 93 9.37 10 0 0 1019 0 21.4 28.2 44.7 117.5 113.1 389.6
05/05 19:50 11 93 9.31 9.9 0 0 1019 0 21.2 28.2 44.5 116.9 112.4 387.2
05/05 19:40 10.9 93 9.25 9.8 4 6 1019 0 21.1 28.1 44.3 116.4 111.7 384.7
05/05 19:30 10.8 93 9.19 9.7 0 7 1019 0 21.0 28.0 44.1 115.8 111.0 382.2
05/05 19:20 10.7 93 9.14 9.6 0 0 1019 0 20.9 28.0 44.0 115.4 110.5 380.2
05/05 19:10 10.5 92 8.92 9.3 0 0 1019 0 20.4 27.6 43.1 113.2 107.7 370.4
05/05 19:00 10.2 92 8.76 9 0 0 1018.9 0 20.1 27.5 42.6 111.8 105.8 363.9
05/05 18:50 10 91 8.55 8.6 0 0 1018.8 0 19.7 27.2 41.8 109.7 103.1 354.5
05/05 18:40 10.1 91 8.61 8.7 7 7 1018.7 0 19.8 27.2 42.0 110.2 103.8 357.0
05/05 18:30 9.9 91 8.5 8.5 6 7 1018.6 0 19.6 27.1 41.6 109.2 102.6 352.5
05/05 18:20 9.8 90 8.35 8.2 4 6 1018.5 0 19.2 26.9 41.1 107.7 100.6 345.6
05/05 18:10 10 90 8.46 8.4 7 7 1018.4 0 19.5 27.0 41.4 108.6 101.9 350.0
05/05 18:00 10 89 8.36 8.3 9 11 1018.3 0 19.3 26.8 41.0 107.5 100.5 345.2
05/05 17:50 10.3 88 8.43 8.4 9 9 1018.2 0 19.4 26.8 41.1 107.9 101.0 347.2
05/05 17:40 10.7 88 8.65 8.8 9 9 1018 0 19.8 27.1 41.8 109.7 103.5 356.0
05/05 17:30 11.1 88 8.87 9.2 13 13 1017.9 0 20.3 27.3 42.5 111.6 106.0 364.8
05/05 17:20 11.5 88 9.09 9.6 13 15 1017.9 0 20.7 27.6 43.2 113.5 108.5 373.6
05/05 17:10 11.7 87 9.1 9.6 13 13 1017.9 0 20.8 27.5 43.2 113.4 108.4 373.1
05/05 17:00 12.3 87 9.45 10.2 15 19 1017.8 0 21.5 27.9 44.3 116.4 112.4 387.2
05/05 16:50 12.8 87 9.75 10.7 13 17 1017.7 0 22.1 28.3 45.3 119.1 115.8 399.3
05/05 16:40 12.8 85 9.52 10.3 20 26 1017.8 0 21.6 27.9 44.3 116.5 112.6 388.1
05/05 16:30 12.9 83 9.36 10.1 15 20 1017.7 0 21.3 27.6 43.6 114.5 110.3 379.8
05/05 16:20 13.2 81 9.3 10 19 22 1017.6 0 21.1 27.4 43.2 113.4 109.0 375.4
05/05 16:10 13.6 79 9.3 10 19 22 1017.4 0 21.1 27.3 42.9 112.8 108.4 373.5
05/05 16:00 14.2 78 9.52 10.4 20 30 1017.3 0 21.5 27.4 43.5 114.3 110.5 381.0
05/05 15:50 13.9 78 9.35 10.1 26 28 1017.2 0 21.2 27.2 43.0 112.9 108.7 374.3
05/05 15:40 14.4 78 9.64 10.6 20 26 1017.1 0 21.8 27.6 43.9 115.4 111.9 385.7
05/05 15:30 14.9 79 10.07 11.3 20 26 1017.1 0 22.7 28.1 45.4 119.4 117.0 403.7
05/05 15:20 14.8 77 9.75 10.8 22 26 1017 0 22.0 27.6 44.1 116.0 112.8 388.9
05/05 15:10 14.2 78 9.52 10.4 20 24 1016.9 0 21.5 27.4 43.5 114.3 110.5 380.9
05/05 15:00 14.5 79 9.83 10.9 19 28 1016.8 0 22.2 27.8 44.6 117.3 114.3 394.2
05/05 14:50 14.1 78 9.47 10.3 20 24 1016.8 0 21.4 27.4 43.3 113.9 110.0 379.0
05/05 14:40 13.9 78 9.35 10.1 20 20 1016.8 0 21.2 27.2 43.0 112.8 108.6 374.2
05/05 14:30 13.7 77 9.12 9.7 26 35 1016.8 0 20.7 26.9 42.1 110.6 105.8 364.3
05/05 14:20 14.4 70 8.65 9 26 32 1016.6 0 19.7 25.9 39.8 104.5 98.6 339.1
05/05 14:10 15.3 69 9.01 9.7 30 33 1016.4 0 20.4 26.2 40.8 107.2 102.1 351.7
05/05 14:00 14.7 71 8.94 9.5 26 37 1016.3 0 20.3 26.3 40.8 107.2 102.0 351.1
05/05 13:50 14.6 71 8.88 9.4 20 26 1016.2 0 20.1 26.2 40.6 106.7 101.3 348.8
05/05 13:40 15.1 71 9.16 9.9 28 37 1016.1 0 20.7 26.5 41.5 109.0 104.4 359.5
05/05 13:30 14.9 74 9.43 10.3 24 37 1016.2 0 21.3 27.0 42.7 112.2 108.2 373.0
05/05 13:20 14.2 77 9.4 10.2 24 26 1016.2 0 21.3 27.2 43.0 112.9 108.8 375.0
05/05 13:10 13.9 78 9.35 10.1 22 26 1016.2 0 21.2 27.2 42.9 112.8 108.6 374.0
05/05 13:00 14 76 9.17 9.8 28 39 1016.2 0 20.8 26.9 42.1 110.7 106.0 365.0
05/05 12:50 14 78 9.41 10.2 28 32 1016.2 0 21.3 27.3 43.1 113.3 109.2 376.4
05/05 12:40 13.8 80 9.53 10.4 20 24 1016.2 0 21.6 27.5 43.7 114.9 111.2 383.1
05/05 12:30 14.2 78 9.52 10.4 20 30 1016.2 0 21.5 27.4 43.5 114.2 110.4 380.7
05/05 12:20 14.5 77 9.58 10.5 22 26 1016.2 0 21.6 27.4 43.6 114.4 110.8 382.1
05/05 12:10 13.9 76 9.11 9.7 26 32 1016.3 0 20.7 26.8 42.0 110.2 105.3 362.7
05/05 12:00 14.3 76 9.34 10.1 22 32 1016.3 0 21.1 27.1 42.7 112.1 107.9 371.7
05/05 11:50 14.2 76 9.28 10 22 24 1016.2 0 21.0 27.0 42.5 111.6 107.2 369.3
05/05 11:40 14.5 80 9.95 11.1 26 32 1016.3 0 22.4 28.0 45.1 118.6 115.9 399.8
05/05 11:30 13.8 81 9.65 10.6 26 35 1016.3 0 21.8 27.7 44.2 116.3 112.8 388.9
05/05 11:20 14 82 9.89 11 30 33 1016.3 0 22.3 28.1 45.1 118.6 115.8 399.4
05/05 11:10 14 85 10.25 11.5 32 35 1016.1 0 23.1 28.7 46.6 122.7 120.8 416.9
05/05 11:00 13.6 89 10.47 11.8 28 37 1015.8 0 23.6 29.2 47.8 125.8 124.5 429.8
05/05 10:50 13.5 88 10.29 11.6 30 33 1015.7 0 23.2 28.9 47.1 123.9 122.1 421.4
05/05 10:40 13.8 91 10.84 12.4 30 35 1015.6 0 24.4 29.8 49.3 129.7 129.4 447.0
05/05 10:30 12.9 90 10.14 11.3 24 35 1015.5 0 22.9 28.8 46.8 123.1 121.0 417.2
05/05 10:20 13.1 89 10.16 11.3 24 28 1015.4 0 23.0 28.8 46.8 123.0 120.9 417.1
05/05 10:10 13.2 88 10.1 11.3 26 32 1015.3 0 22.8 28.7 46.4 122.2 119.9 413.6
05/05 10:00 13.4 89 10.35 11.6 24 33 1015.2 0 23.4 29.0 47.4 124.7 123.1 424.8
05/05 09:50 13.2 90 10.33 11.6 22 26 1015.1 0 23.3 29.1 47.4 124.8 123.1 424.8
05/05 09:40 13.4 91 10.58 12 20 26 1015 0 23.9 29.4 48.4 127.3 126.3 436.1
05/05 09:30 13 91 10.32 11.6 22 30 1014.9 0 23.3 29.1 47.5 125.0 123.3 425.4
05/05 09:20 13.3 91 10.51 11.9 22 24 1014.8 0 23.7 29.3 48.1 126.6 125.5 433.1
05/05 09:10 13.2 92 10.56 11.9 20 22 1014.7 0 23.8 29.4 48.4 127.4 126.4 436.2
05/05 09:00 13.1 92 10.5 11.8 20 28 1014.7 0 23.7 29.4 48.2 126.8 125.7 433.7
05/05 08:50 12.8 93 10.42 11.7 20 24 1014.7 8 23.5 29.3 48.0 126.4 125.0 431.4
05/05 08:40 12.7 93 10.35 11.6 20 24 1014.5 8 23.4 29.2 47.8 125.7 124.2 428.4
05/05 08:30 12.5 93 10.23 11.4 19 24 1014.4 8 23.2 29.1 47.4 124.7 122.8 423.5
05/05 08:20 12.1 93 9.97 11 17 19 1014.3 8 22.6 28.8 46.5 122.3 119.7 412.7
05/05 08:10 12.4 93 10.16 11.3 19 20 1014.2 8 23.0 29.0 47.1 124.0 121.9 420.5
05/05 08:00 11.7 92 9.62 10.4 17 20 1013.9 8 21.9 28.3 45.2 118.8 115.3 397.3
05/05 07:50 11.7 92 9.62 10.4 17 20 1013.7 8 21.9 28.3 45.2 118.8 115.3 397.3
05/05 07:40 11.5 92 9.5 10.2 17 20 1013.4 8 21.6 28.1 44.8 117.7 113.9 392.3
05/05 07:30 11.6 92 9.56 10.3 19 22 1013.2 7.8 21.8 28.2 45.0 118.2 114.5 394.7
05/05 07:20 11.1 91 9.17 9.7 19 20 1013.1 7.8 20.9 27.7 43.6 114.5 109.8 378.0
05/05 07:10 11 91 9.11 9.6 15 17 1012.8 7.8 20.8 27.6 43.4 113.9 109.1 375.4
05/05 07:00 11.2 91 9.23 9.8 19 26 1012.7 7.8 21.1 27.7 43.8 115.0 110.4 380.3
05/05 06:50 11.7 91 9.52 10.3 22 26 1012.6 7.8 21.7 28.0 44.7 117.5 113.8 392.0
05/05 06:40 11.9 92 9.74 10.6 28 33 1012.3 7.8 22.1 28.3 45.5 119.7 116.5 401.7
05/05 06:30 12.1 93 9.97 11 20 26 1012.1 7.8 22.6 28.7 46.4 122.0 119.5 412.0
05/05 06:20 12.2 93 10.04 11.1 24 28 1011.9 7.8 22.8 28.8 46.6 122.6 120.3 414.9
05/05 06:10 12.3 93 10.1 11.2 26 30 1011.7 7.8 22.9 28.8 46.8 123.2 121.0 417.2
05/05 06:00 12.4 94 10.27 11.5 20 32 1011.5 7.8 23.3 29.1 47.5 124.9 123.2 425.1
05/05 05:50 12.3 94 10.21 11.4 19 20 1011.3 7.8 23.1 29.0 47.3 124.4 122.5 422.6
05/05 05:40 12.5 94 10.34 11.6 19 20 1011.3 7.8 23.4 29.2 47.7 125.6 124.0 428.0
05/05 05:30 12.6 94 10.4 11.7 20 28 1011.1 7.8 23.5 29.2 47.9 126.1 124.7 430.3
05/05 05:20 12.5 94 10.34 11.6 19 20 1010.9 7.8 23.4 29.1 47.7 125.5 124.0 427.8
05/05 05:10 12.5 93 10.23 11.4 17 20 1010.7 7.8 23.2 28.9 47.2 124.2 122.4 422.3
05/05 05:00 12.8 93 10.42 11.7 20 30 1010.5 7.6 23.6 29.2 47.8 125.9 124.6 430.0
05/05 04:50 12.5 93 10.23 11.4 19 20 1010.3 7.6 23.2 28.9 47.2 124.2 122.4 422.1
05/05 04:40 12.5 94 10.34 11.6 19 20 1010.1 7.6 23.4 29.1 47.6 125.4 123.9 427.5
05/05 04:30 12.8 94 10.53 11.9 24 32 1009.8 7.6 23.8 29.3 48.3 127.1 126.1 435.3
05/05 04:20 12.7 94 10.46 11.8 22 28 1009.7 7.6 23.6 29.2 48.0 126.4 125.3 432.3

Last Refresh: 05-May-2026 20:28:03

Bureau of Meteorology